DNKT

Katsina / Yaradura Airport

Katsina, Nigeria
TAF DNKT 162150Z 1700/1806 07004KT 6000 NSW NSC TEMPO 1706/1712 08015KT 3000 HZ
Issued Valid From Valid To
Nov-16 @ 21:50 UTC
(24 hours ago)
Nov-17 @ 00:00 UTC
(22 hours ago)
Nov-18 @ 06:00 UTC
(in 8 hours)
Nov-17 @ 00:00 to Nov-18 @ 06:00
TAF DNKT 162150Z 1700/1806 07004KT 6000 NSW NSC
Wind Visibility Clouds Conditions
70° at 4 knots 6,003 meters
  • No significant clouds
Expired Click to View Nov-17 @ 06:00 to Nov-17 @ 12:00
TEMPO 1706/1712 08015KT 3000 HZ
Wind Visibility Conditions
80° at 15 knots 2,993 meters
  • Haze
TAF DNKT 162150Z 1700/1806 07004KT 6000 NSW NSC TEMPO 1706/1712 08015KT 3000 HZ
Issued Nov-16 @ 21:50 UTC
(24 hours ago)
Valid From Nov-17 @ 00:00 UTC
(22 hours ago)
Valid To Nov-18 @ 06:00 UTC
(in 8 hours)
Nov-17 @ 00:00 - Nov-18 @ 06:00
Wind Visibility
70° at 4 knots 6,003 meters
Clouds
  • No significant clouds
Conditions
Nov-17 @ 06:00 - Nov-17 @ 12:00
Wind Visibility
80° at 15 knots 2,993 meters
Conditions
  • Haze